createdAt,value
2019-02-17T00:01:25.360Z,101264.00
2019-02-17T00:03:53.890Z,101258.80
2019-02-17T00:06:22.710Z,101265.50
2019-02-17T00:08:51.235Z,101267.36
2019-02-17T00:11:19.766Z,101264.22
2019-02-17T00:13:48.208Z,101267.48
2019-02-17T00:16:16.640Z,101264.95
2019-02-17T00:18:45.110Z,101264.33
2019-02-17T00:21:13.639Z,101259.31
2019-02-17T00:23:42.363Z,101257.92
2019-02-17T00:26:10.892Z,101260.75
2019-02-17T00:28:39.323Z,101266.17
2019-02-17T00:31:07.760Z,101264.77
2019-02-17T00:33:36.222Z,101260.35
2019-02-17T00:36:04.657Z,101263.53
2019-02-17T00:38:33.093Z,101265.06
2019-02-17T00:41:01.566Z,101264.69
2019-02-17T00:43:30.028Z,101261.80
2019-02-17T00:45:58.814Z,101269.95
2019-02-17T00:48:27.585Z,101262.73
2019-02-17T00:50:56.373Z,101272.52
2019-02-17T00:53:24.809Z,101270.74
2019-02-17T00:55:53.357Z,101273.17
2019-02-17T00:58:21.793Z,101272.94
2019-02-17T01:00:50.534Z,101271.88
2019-02-17T01:03:19.000Z,101268.88
2019-02-17T01:05:47.798Z,101269.80
2019-02-17T01:08:16.238Z,101275.45
2019-02-17T01:10:44.707Z,101270.27
2019-02-17T01:13:13.138Z,101267.16
2019-02-17T01:15:41.908Z,101264.31
2019-02-17T01:18:10.384Z,101260.45
2019-02-17T01:20:39.178Z,101256.86
2019-02-17T01:23:07.615Z,101260.87
2019-02-17T01:25:36.248Z,101257.80
2019-02-17T01:28:04.824Z,101258.48
2019-02-17T01:30:33.257Z,101257.66
2019-02-17T01:33:01.733Z,101256.72
2019-02-17T01:35:30.153Z,101252.52
2019-02-17T01:37:58.789Z,101247.34
2019-02-17T01:40:27.241Z,101247.46
2019-02-17T01:42:55.677Z,101248.98
2019-02-17T01:45:24.182Z,101241.78
2019-02-17T01:47:52.834Z,101236.41
2019-02-17T01:50:21.270Z,101239.06
2019-02-17T01:52:50.070Z,101241.16
2019-02-17T01:55:18.538Z,101239.86
2019-02-17T01:57:47.073Z,101241.16
2019-02-17T02:00:16.448Z,101236.78
2019-02-17T02:02:44.930Z,101226.13
2019-02-17T02:05:13.446Z,101234.08
2019-02-17T02:07:41.982Z,101231.81
2019-02-17T02:10:10.726Z,101224.36
2019-02-17T02:12:39.231Z,101219.09
2019-02-17T02:15:10.410Z,101217.83
2019-02-17T02:17:38.951Z,101213.22
2019-02-17T02:20:12.987Z,101217.00
2019-02-17T02:22:41.699Z,101224.58
2019-02-17T02:25:10.697Z,101222.91
2019-02-17T02:27:39.133Z,101220.98
2019-02-17T02:30:10.809Z,101223.43
2019-02-17T02:32:39.382Z,101221.61
2019-02-17T02:35:07.955Z,101222.34
2019-02-17T02:37:36.457Z,101222.29
2019-02-17T02:40:05.984Z,101222.70
2019-02-17T02:42:34.441Z,101232.58
2019-02-17T02:45:03.040Z,101232.24
2019-02-17T02:47:31.513Z,101223.02
2019-02-17T02:49:59.945Z,101229.64
2019-02-17T02:52:28.385Z,101231.44
2019-02-17T02:54:56.940Z,101226.25
2019-02-17T02:57:25.373Z,101230.58
2019-02-17T02:59:53.808Z,101229.06
2019-02-17T03:02:22.574Z,101232.13
2019-02-17T03:04:51.006Z,101230.52
2019-02-17T03:07:19.510Z,101229.84
2019-02-17T03:09:47.970Z,101236.05
2019-02-17T03:12:16.408Z,101236.06
2019-02-17T03:14:44.848Z,101231.23
2019-02-17T03:17:13.309Z,101232.05
2019-02-17T03:19:41.743Z,101229.64
2019-02-17T03:22:10.180Z,101232.33
2019-02-17T03:24:39.007Z,101227.31
2019-02-17T03:27:07.441Z,101235.45
2019-02-17T03:29:35.882Z,101228.73
2019-02-17T03:32:04.369Z,101237.59
2019-02-17T03:34:32.795Z,101235.25
2019-02-17T03:37:01.232Z,101232.38
2019-02-17T03:39:30.097Z,101231.74
2019-02-17T03:41:58.705Z,101235.12
2019-02-17T03:44:27.213Z,101233.53
2019-02-17T03:46:55.949Z,101231.23
2019-02-17T03:49:24.485Z,101223.05
2019-02-17T03:51:52.931Z,101227.27
2019-02-17T03:54:21.393Z,101230.03
2019-02-17T03:56:49.839Z,101224.45
2019-02-17T03:59:18.273Z,101221.06
2019-02-17T04:01:46.994Z,101221.95
2019-02-17T04:04:15.428Z,101223.73
2019-02-17T04:07:03.237Z,101224.77
2019-02-17T04:09:50.856Z,101223.90
2019-02-17T04:12:19.497Z,101229.94
2019-02-17T04:14:47.935Z,101229.46
2019-02-17T04:17:16.718Z,101227.08
2019-02-17T04:20:04.506Z,101225.25
2019-02-17T04:22:32.943Z,101228.33
2019-02-17T04:25:01.379Z,101229.52
2019-02-17T04:27:29.842Z,101231.55
2019-02-17T04:29:58.370Z,101234.09
2019-02-17T04:32:26.802Z,101232.33
2019-02-17T04:34:55.262Z,101232.80
2019-02-17T04:37:23.795Z,101228.95
2019-02-17T04:39:52.227Z,101229.16
2019-02-17T04:42:20.711Z,101233.53
2019-02-17T04:44:49.163Z,101228.06
2019-02-17T04:47:17.718Z,101232.27
2019-02-17T04:49:46.184Z,101232.07
2019-02-17T04:52:14.617Z,101221.60
2019-02-17T04:54:43.052Z,101231.41
2019-02-17T04:57:11.521Z,101223.94
2019-02-17T04:59:39.953Z,101216.09
2019-02-17T05:02:08.545Z,101211.40
2019-02-17T05:04:37.318Z,101209.27
2019-02-17T05:07:05.767Z,101211.66
2019-02-17T05:09:34.198Z,101210.66
2019-02-17T05:12:02.754Z,101209.22
2019-02-17T05:14:31.346Z,101213.27
2019-02-17T05:16:59.864Z,101204.79
2019-02-17T05:19:28.341Z,101210.94
2019-02-17T05:21:56.779Z,101209.78
2019-02-17T05:24:25.218Z,101208.31
2019-02-17T05:26:53.701Z,101207.44
2019-02-17T05:29:22.142Z,101207.75
2019-02-17T05:31:50.924Z,101211.77
2019-02-17T05:34:19.659Z,101213.44
2019-02-17T05:36:48.104Z,101211.50
2019-02-17T05:39:16.622Z,101206.56
2019-02-17T05:41:45.105Z,101216.92
2019-02-17T05:44:13.582Z,101216.56
2019-02-17T05:46:42.455Z,101208.58
2019-02-17T05:49:11.160Z,101213.32
2019-02-17T05:51:39.600Z,101211.09
2019-02-17T05:54:08.380Z,101207.97
2019-02-17T05:56:36.867Z,101204.06
2019-02-17T05:59:05.397Z,101202.34
2019-02-17T06:01:33.835Z,101205.66
2019-02-17T06:04:02.303Z,101214.41
2019-02-17T06:06:30.751Z,101210.52
2019-02-17T06:08:59.199Z,101208.48
2019-02-17T06:11:28.265Z,101218.21
2019-02-17T06:13:56.708Z,101207.97
2019-02-17T06:16:25.428Z,101213.27
2019-02-17T06:18:53.913Z,101210.00
2019-02-17T06:21:22.694Z,101218.33
2019-02-17T06:23:51.156Z,101214.90
2019-02-17T06:26:20.559Z,101223.07
2019-02-17T06:28:49.087Z,101217.39
2019-02-17T06:31:17.533Z,101221.61
2019-02-17T06:33:46.335Z,101222.44
2019-02-17T06:36:14.873Z,101222.55
2019-02-17T06:38:43.706Z,101225.88
2019-02-17T06:41:12.183Z,101225.56
2019-02-17T06:43:40.639Z,101231.91
2019-02-17T06:46:10.808Z,101228.69
2019-02-17T06:48:39.278Z,101225.98
2019-02-17T06:51:07.793Z,101227.64
2019-02-17T06:53:36.232Z,101229.89
2019-02-17T06:56:08.987Z,101226.75
2019-02-17T06:58:36.880Z,101233.73
2019-02-17T07:01:05.326Z,101240.91
2019-02-17T07:03:33.792Z,101237.95
2019-02-17T07:06:03.917Z,101235.31
2019-02-17T07:08:33.264Z,101232.38
2019-02-17T07:11:01.732Z,101234.27
2019-02-17T07:13:30.166Z,101229.83
2019-02-17T07:15:58.622Z,101229.05
2019-02-17T07:18:27.072Z,101221.72
2019-02-17T07:20:55.534Z,101230.72
2019-02-17T07:23:23.983Z,101236.66
2019-02-17T07:25:52.460Z,101240.14
2019-02-17T07:28:20.902Z,101238.98
2019-02-17T07:30:49.367Z,101237.94
2019-02-17T07:33:17.855Z,101238.25
2019-02-17T07:35:46.288Z,101229.98
2019-02-17T07:38:14.739Z,101234.16
2019-02-17T07:40:43.208Z,101227.73
2019-02-17T07:43:11.998Z,101222.16
2019-02-17T07:45:40.435Z,101227.99
2019-02-17T07:48:08.915Z,101226.03
2019-02-17T07:50:37.349Z,101227.34
2019-02-17T07:53:06.127Z,101229.93
2019-02-17T07:55:35.816Z,101226.76
2019-02-17T07:58:04.252Z,101225.23
2019-02-17T08:00:32.691Z,101223.84
2019-02-17T08:03:01.167Z,101225.47
2019-02-17T08:05:29.697Z,101226.45
2019-02-17T08:07:58.457Z,101215.86
2019-02-17T08:10:26.961Z,101223.92
2019-02-17T08:12:55.517Z,101217.48
2019-02-17T08:15:23.959Z,101226.81
2019-02-17T08:17:52.418Z,101222.07
2019-02-17T08:20:20.862Z,101220.47
2019-02-17T08:22:49.299Z,101215.76
2019-02-17T08:25:21.801Z,101215.08
2019-02-17T08:27:47.940Z,101212.08
2019-02-17T08:30:16.541Z,101222.44
2019-02-17T08:32:45.126Z,101215.16
2019-02-17T08:35:13.625Z,101219.14
2019-02-17T08:37:42.107Z,101225.38
2019-02-17T08:40:11.361Z,101217.58
2019-02-17T08:42:39.879Z,101215.09
2019-02-17T08:45:11.609Z,101209.90
2019-02-17T08:47:40.190Z,101211.52
2019-02-17T08:50:11.175Z,101201.83
2019-02-17T08:52:39.694Z,101202.86
2019-02-17T08:55:10.313Z,101208.80
2019-02-17T08:57:38.821Z,101202.56
2019-02-17T09:00:13.441Z,101207.28
2019-02-17T09:02:41.979Z,101204.16
2019-02-17T09:05:10.544Z,101197.30
2019-02-17T09:07:39.057Z,101204.94
2019-02-17T09:10:12.882Z,101199.53
2019-02-17T09:12:41.316Z,101195.11
2019-02-17T09:15:11.794Z,101200.75
2019-02-17T09:17:40.282Z,101200.75
2019-02-17T09:20:10.662Z,101196.08
2019-02-17T09:22:39.094Z,101186.55
2019-02-17T09:25:10.110Z,101179.47
2019-02-17T09:27:38.606Z,101179.87
2019-02-17T09:30:13.028Z,101185.01
2019-02-17T09:32:41.497Z,101188.14
2019-02-17T09:35:09.996Z,101192.53
2019-02-17T09:37:38.452Z,101187.40
2019-02-17T09:40:10.632Z,101186.89
2019-02-17T09:42:39.446Z,101187.30
2019-02-17T09:45:11.576Z,101177.16
2019-02-17T09:47:40.034Z,101178.71
2019-02-17T09:50:11.504Z,101182.74
2019-02-17T09:52:40.084Z,101182.89
2019-02-17T09:55:10.500Z,101184.70
2019-02-17T09:57:39.757Z,101186.44
2019-02-17T10:00:11.200Z,101175.22
2019-02-17T10:02:39.733Z,101176.43
2019-02-17T10:05:10.197Z,101169.27
2019-02-17T10:07:38.804Z,101176.25
2019-02-17T10:10:15.819Z,101172.57
2019-02-17T10:12:44.664Z,101168.84
2019-02-17T10:15:14.032Z,101163.73
2019-02-17T10:17:42.917Z,101166.91
2019-02-17T10:20:13.930Z,101159.00
2019-02-17T10:22:42.352Z,101161.31
2019-02-17T10:25:11.344Z,101152.39
2019-02-17T10:27:39.774Z,101159.03
2019-02-17T10:30:16.450Z,101156.91
2019-02-17T10:32:44.945Z,101152.65
2019-02-17T10:35:13.548Z,101148.50
2019-02-17T10:37:42.029Z,101150.73
2019-02-17T10:40:15.617Z,101153.13
2019-02-17T10:42:44.373Z,101149.92
2019-02-17T10:45:13.696Z,101146.59
2019-02-17T10:47:42.124Z,101145.75
2019-02-17T10:50:12.294Z,101147.14
2019-02-17T10:52:40.754Z,101142.44
2019-02-17T10:55:11.574Z,101143.70
2019-02-17T10:57:40.268Z,101143.24
2019-02-17T11:00:14.848Z,101141.56
2019-02-17T11:02:46.946Z,101147.27
2019-02-17T11:05:13.905Z,101137.25
2019-02-17T11:07:42.745Z,101131.58
2019-02-17T11:10:13.181Z,101127.25
2019-02-17T11:12:41.681Z,101121.56
2019-02-17T11:15:16.276Z,101120.23
2019-02-17T11:17:44.705Z,101115.41
2019-02-17T11:20:13.369Z,101107.05
2019-02-17T11:22:41.904Z,101105.27
2019-02-17T11:25:10.870Z,101103.50
2019-02-17T11:27:39.306Z,101098.23
2019-02-17T11:30:11.177Z,101096.45
2019-02-17T11:32:39.604Z,101095.13
2019-02-17T11:35:08.471Z,101083.58
2019-02-17T11:37:37.048Z,101076.05
2019-02-17T11:40:08.621Z,101075.07
2019-02-17T11:42:37.051Z,101075.08
2019-02-17T11:45:19.885Z,101067.62
2019-02-17T11:47:48.552Z,101062.69
2019-02-17T11:50:16.980Z,101057.71
2019-02-17T11:52:45.438Z,101058.17
2019-02-17T11:55:15.408Z,101044.83
2019-02-17T11:57:43.909Z,101051.45
2019-02-17T12:00:18.745Z,101048.23
2019-02-17T12:02:47.177Z,101045.52
2019-02-17T12:05:15.676Z,101044.48
2019-02-17T12:07:44.272Z,101043.54
2019-02-17T12:10:13.045Z,101033.56
2019-02-17T12:12:41.812Z,101032.64
2019-02-17T12:15:12.853Z,101025.03
2019-02-17T12:17:41.366Z,101024.58
2019-02-17T12:20:33.019Z,101021.77
2019-02-17T12:23:03.085Z,101020.42
2019-02-17T12:25:33.257Z,101015.59
2019-02-17T12:28:06.201Z,101009.70
2019-02-17T12:30:34.971Z,101000.95
2019-02-17T12:33:03.409Z,100999.31
2019-02-17T12:35:31.894Z,100990.70
2019-02-17T12:38:00.370Z,100994.25
2019-02-17T12:40:28.829Z,100988.56
2019-02-17T12:42:57.665Z,100985.03
2019-02-17T12:45:26.208Z,100978.60
2019-02-17T12:47:58.210Z,100978.87
2019-02-17T12:50:24.928Z,100973.64
2019-02-17T12:52:53.462Z,100972.73
2019-02-17T12:55:21.893Z,100972.26
2019-02-17T12:57:50.487Z,100969.45
2019-02-17T13:00:19.058Z,100968.50
2019-02-17T13:02:47.498Z,100966.38
2019-02-17T13:05:16.063Z,100960.13
2019-02-17T13:07:44.855Z,100960.16
2019-02-17T13:10:13.575Z,100956.84
2019-02-17T13:12:42.052Z,100952.28
2019-02-17T13:15:12.229Z,100945.27
2019-02-17T13:17:40.661Z,100941.95
2019-02-17T13:20:11.980Z,100934.78
2019-02-17T13:22:40.481Z,100935.43
2019-02-17T13:25:11.889Z,100923.59
2019-02-17T13:27:41.201Z,100929.20
2019-02-17T13:30:21.431Z,100926.74
2019-02-17T13:32:50.059Z,100913.78
2019-02-17T13:35:20.596Z,100905.97
2019-02-17T13:37:49.026Z,100903.42
2019-02-17T13:40:17.564Z,100898.41
2019-02-17T13:42:46.105Z,100898.64
2019-02-17T13:45:17.074Z,100901.66
2019-02-17T13:47:45.590Z,100898.53
2019-02-17T13:50:16.040Z,100895.23
2019-02-17T13:52:44.759Z,100895.27
2019-02-17T13:55:13.747Z,100893.21
2019-02-17T13:57:42.189Z,100893.93
2019-02-17T14:00:19.148Z,100896.09
2019-02-17T14:02:48.621Z,100891.91
2019-02-17T14:05:17.135Z,100884.05
2019-02-17T14:07:45.700Z,100883.50
2019-02-17T14:10:14.687Z,100882.49
2019-02-17T14:12:43.297Z,100883.87
2019-02-17T14:15:19.772Z,100879.95
2019-02-17T14:17:48.193Z,100875.29
2019-02-17T14:20:16.699Z,100875.88
2019-02-17T14:22:45.631Z,100877.41
2019-02-17T14:25:14.433Z,100871.32
2019-02-17T14:27:42.866Z,100868.07
2019-02-17T14:30:14.009Z,100868.72
2019-02-17T14:32:42.787Z,100862.75
2019-02-17T14:35:11.364Z,100861.14
2019-02-17T14:37:40.879Z,100858.66
2019-02-17T14:40:11.442Z,100857.31
2019-02-17T14:42:39.878Z,100857.47
2019-02-17T14:45:13.024Z,100848.03
2019-02-17T14:47:41.756Z,100851.17
2019-02-17T14:50:10.741Z,100844.83
2019-02-17T14:52:39.212Z,100844.64
2019-02-17T14:55:09.490Z,100843.81
2019-02-17T14:57:38.250Z,100851.02
2019-02-17T15:00:12.478Z,100842.80
2019-02-17T15:02:40.931Z,100844.45
2019-02-17T15:05:10.529Z,100840.41
2019-02-17T15:07:38.983Z,100840.36
2019-02-17T15:10:11.827Z,100840.27
2019-02-17T15:12:40.446Z,100845.52
2019-02-17T15:15:14.403Z,100845.09
2019-02-17T15:17:42.838Z,100839.34
2019-02-17T15:20:16.221Z,100841.17
2019-02-17T15:22:45.086Z,100838.41
2019-02-17T15:25:13.620Z,100837.13
2019-02-17T15:27:42.150Z,100830.47
2019-02-17T15:30:17.639Z,100830.28
2019-02-17T15:32:45.549Z,100825.42
2019-02-17T15:35:14.190Z,100823.75
2019-02-17T15:37:43.624Z,100824.55
2019-02-17T15:40:14.345Z,100822.10
2019-02-17T15:42:43.471Z,100818.34
2019-02-17T15:45:13.742Z,100816.92
2019-02-17T15:47:43.154Z,100813.55
2019-02-17T15:50:14.135Z,100810.70
2019-02-17T15:52:42.963Z,100811.81
2019-02-17T15:55:13.601Z,100813.55
2019-02-17T15:57:42.346Z,100808.89
2019-02-17T16:00:15.729Z,100806.41
2019-02-17T16:02:44.381Z,100798.99
2019-02-17T16:05:12.952Z,100797.70
2019-02-17T16:07:41.498Z,100795.17
2019-02-17T16:10:15.017Z,100794.45
2019-02-17T16:12:43.461Z,100792.22
2019-02-17T16:15:17.370Z,100793.20
2019-02-17T16:17:45.805Z,100787.95
2019-02-17T16:20:15.163Z,100792.83
2019-02-17T16:22:43.796Z,100788.04
2019-02-17T16:25:12.950Z,100790.02
2019-02-17T16:27:41.393Z,100787.84
2019-02-17T16:30:49.775Z,100785.02
2019-02-17T16:33:18.211Z,100788.38
2019-02-17T16:35:46.651Z,100787.72
2019-02-17T16:38:15.111Z,100787.38
2019-02-17T16:40:43.540Z,100790.47
2019-02-17T16:43:12.303Z,100795.59
2019-02-17T16:45:40.860Z,100789.98
2019-02-17T16:48:09.576Z,100799.30
2019-02-17T16:50:38.009Z,100799.69
2019-02-17T16:53:25.670Z,100789.95
2019-02-17T16:55:54.096Z,100796.20
2019-02-17T16:58:22.525Z,100798.02
2019-02-17T17:01:32.716Z,100801.19
2019-02-17T17:04:20.385Z,100800.91
2019-02-17T17:06:48.974Z,100807.27
2019-02-17T17:09:17.703Z,100796.87
2019-02-17T17:12:05.980Z,100807.47
2019-02-17T17:14:34.414Z,100810.66
2019-02-17T17:17:22.178Z,100809.83
2019-02-17T17:19:50.952Z,100811.59
2019-02-17T17:22:21.533Z,100813.47
2019-02-17T17:27:23.992Z,100818.40
2019-02-17T17:30:11.808Z,100827.64
2019-02-17T17:32:59.804Z,100821.92
2019-02-17T17:35:28.322Z,100822.36
2019-02-17T17:38:16.042Z,100817.98
2019-02-17T17:40:44.538Z,100822.81
2019-02-17T17:43:32.342Z,100821.05
2019-02-17T17:48:54.556Z,100825.80
2019-02-17T17:51:42.385Z,100831.53
2019-02-17T17:54:30.526Z,100838.05
2019-02-17T18:00:12.438Z,100840.56
2019-02-17T18:03:00.196Z,100843.13
2019-02-17T18:05:48.147Z,100842.19
2019-02-17T18:11:29.675Z,100846.03
2019-02-17T18:14:17.504Z,100842.11
2019-02-17T18:16:57.785Z,100845.88
2019-02-17T18:22:39.319Z,100846.28
2019-02-17T18:25:48.013Z,100850.47
2019-02-17T18:28:17.937Z,100846.95
2019-02-17T18:31:05.875Z,100844.77
2019-02-17T18:33:53.692Z,100845.18
2019-02-17T18:42:10.305Z,100850.09
2019-02-17T18:44:58.327Z,100845.70
2019-02-17T18:48:06.722Z,100850.42
2019-02-17T18:50:59.211Z,100859.82
2019-02-17T18:56:51.023Z,100852.84
2019-02-17T18:59:59.528Z,100849.13
2019-02-17T19:02:47.388Z,100852.09
2019-02-17T19:05:35.141Z,100855.98
2019-02-17T19:08:23.381Z,100860.24
2019-02-17T19:11:11.509Z,100858.24
2019-02-17T19:13:59.756Z,100859.39
2019-02-17T19:16:47.731Z,100868.11
2019-02-17T19:19:35.425Z,100866.32
2019-02-17T19:22:23.099Z,100866.44
2019-02-17T19:25:11.131Z,100862.81
2019-02-17T19:27:58.809Z,100870.20
2019-02-17T19:30:27.824Z,100874.94
2019-02-17T19:33:15.923Z,100862.52
2019-02-17T19:36:04.111Z,100867.97
2019-02-17T19:38:32.709Z,100860.25
2019-02-17T19:41:20.861Z,100866.26
2019-02-17T19:44:08.674Z,100861.80
2019-02-17T19:50:11.913Z,100870.72
2019-02-17T19:53:00.152Z,100870.35
2019-02-17T19:55:48.507Z,100880.19
2019-02-17T19:58:36.298Z,100881.61
2019-02-17T20:04:36.941Z,100882.27
2019-02-17T20:10:18.001Z,100888.58
2019-02-17T20:12:47.422Z,100885.59
2019-02-17T20:18:44.016Z,100887.61
2019-02-17T20:21:31.679Z,100888.64
2019-02-17T20:24:41.051Z,100890.25
2019-02-17T20:27:09.533Z,100885.27
2019-02-17T20:29:38.088Z,100886.80
2019-02-17T20:34:59.901Z,100899.34
2019-02-17T20:37:47.667Z,100893.94
2019-02-17T20:40:56.062Z,100895.47
2019-02-17T20:43:43.955Z,100894.22
2019-02-17T20:46:12.902Z,100895.82
2019-02-17T20:48:41.822Z,100901.30
2019-02-17T20:51:12.227Z,100898.63
2019-02-17T20:53:41.024Z,100900.19
2019-02-17T20:56:09.663Z,100899.28
2019-02-17T20:58:40.288Z,100896.98
2019-02-17T21:01:09.845Z,100893.23
2019-02-17T21:03:38.408Z,100890.69
2019-02-17T21:06:12.923Z,100893.05
2019-02-17T21:08:56.807Z,100892.02
2019-02-17T21:11:25.430Z,100893.61
2019-02-17T21:14:13.141Z,100887.67
2019-02-17T21:19:55.668Z,100890.96
2019-02-17T21:23:04.334Z,100892.62
2019-02-17T21:25:52.046Z,100896.98
2019-02-17T21:28:20.825Z,100889.69
2019-02-17T21:31:08.465Z,100895.80
2019-02-17T21:33:56.322Z,100890.84
2019-02-17T21:36:24.785Z,100895.70
2019-02-17T21:38:53.236Z,100898.43
2019-02-17T21:44:16.781Z,100884.16
2019-02-17T21:46:46.681Z,100883.38
2019-02-17T21:49:15.113Z,100885.70
2019-02-17T21:51:43.670Z,100889.41
2019-02-17T21:54:12.096Z,100885.13
2019-02-17T21:56:40.529Z,100890.34
2019-02-17T21:59:08.996Z,100892.03
2019-02-17T22:01:37.745Z,100890.20
2019-02-17T22:04:06.176Z,100890.73
2019-02-17T22:06:34.725Z,100884.95
2019-02-17T22:11:52.265Z,100888.64
2019-02-17T22:14:20.706Z,100882.53
2019-02-17T22:16:49.420Z,100884.26
2019-02-17T22:19:17.878Z,100886.05
2019-02-17T22:21:46.310Z,100885.16
2019-02-17T22:24:14.834Z,100877.75
2019-02-17T22:26:43.293Z,100881.09
2019-02-17T22:29:12.852Z,100874.78
2019-02-17T22:32:01.322Z,100879.23
2019-02-17T22:34:30.089Z,100880.19
2019-02-17T22:36:58.525Z,100876.20
2019-02-17T22:39:27.261Z,100880.59
2019-02-17T22:41:56.045Z,100879.51
2019-02-17T22:44:24.834Z,100882.41
2019-02-17T22:47:12.715Z,100885.76
2019-02-17T22:49:41.126Z,100880.75
2019-02-17T23:01:10.689Z,100888.22
2019-02-17T23:03:58.665Z,100894.26
2019-02-17T23:06:53.787Z,100889.56
2019-02-17T23:09:35.970Z,100888.41
2019-02-17T23:12:04.475Z,100884.59
2019-02-17T23:14:32.911Z,100886.70
2019-02-17T23:19:35.042Z,100887.27
2019-02-17T23:22:03.481Z,100894.33
2019-02-17T23:24:32.029Z,100891.86
2019-02-17T23:27:19.807Z,100887.73
2019-02-17T23:29:48.377Z,100885.89
2019-02-17T23:32:16.840Z,100890.73
2019-02-17T23:34:45.365Z,100893.34
2019-02-17T23:37:13.835Z,100892.88
2019-02-17T23:39:42.269Z,100891.39
2019-02-17T23:42:10.798Z,100891.55
2019-02-17T23:44:39.258Z,100888.23
2019-02-17T23:47:07.690Z,100890.28
2019-02-17T23:49:36.121Z,100887.67
2019-02-17T23:52:24.053Z,100887.40
2019-02-17T23:54:52.791Z,100900.37
2019-02-17T23:57:21.233Z,100898.06
2019-02-17T23:59:50.267Z,100891.73
